sensor_id;sensor_type;location;lat;lon;timestamp;temperature;humidity
8459;DHT22;4266;48.816;9.154;2022-09-09T00:01:27;15.00;98.90
8459;DHT22;4266;48.816;9.154;2022-09-09T00:03:57;14.90;99.20
8459;DHT22;4266;48.816;9.154;2022-09-09T00:06:33;14.80;99.40
8459;DHT22;4266;48.816;9.154;2022-09-09T00:09:03;14.70;99.60
8459;DHT22;4266;48.816;9.154;2022-09-09T00:11:33;14.70;99.70
8459;DHT22;4266;48.816;9.154;2022-09-09T00:13:54;14.80;99.20
8459;DHT22;4266;48.816;9.154;2022-09-09T00:16:22;14.80;98.80
8459;DHT22;4266;48.816;9.154;2022-09-09T00:19:12;14.90;99.00
8459;DHT22;4266;48.816;9.154;2022-09-09T00:21:35;14.80;99.00
8459;DHT22;4266;48.816;9.154;2022-09-09T00:23:59;15.30;98.00
8459;DHT22;4266;48.816;9.154;2022-09-09T00:26:44;15.60;97.20
8459;DHT22;4266;48.816;9.154;2022-09-09T00:29:22;15.30;98.10
8459;DHT22;4266;48.816;9.154;2022-09-09T00:31:47;15.10;98.90
8459;DHT22;4266;48.816;9.154;2022-09-09T00:34:14;15.00;99.10
8459;DHT22;4266;48.816;9.154;2022-09-09T00:36:39;15.00;98.60
8459;DHT22;4266;48.816;9.154;2022-09-09T00:39:04;15.00;98.80
8459;DHT22;4266;48.816;9.154;2022-09-09T00:47:09;15.20;98.50
8459;DHT22;4266;48.816;9.154;2022-09-09T00:49:50;15.10;98.40
8459;DHT22;4266;48.816;9.154;2022-09-09T00:57:36;15.50;97.00
8459;DHT22;4266;48.816;9.154;2022-09-09T01:02:39;15.40;98.20
8459;DHT22;4266;48.816;9.154;2022-09-09T01:05:03;15.40;98.20
8459;DHT22;4266;48.816;9.154;2022-09-09T01:07:27;15.50;98.20
8459;DHT22;4266;48.816;9.154;2022-09-09T01:09:57;15.50;98.20
8459;DHT22;4266;48.816;9.154;2022-09-09T01:12:25;15.50;98.10
8459;DHT22;4266;48.816;9.154;2022-09-09T01:14:52;15.40;98.30
8459;DHT22;4266;48.816;9.154;2022-09-09T01:17:21;15.40;97.90
8459;DHT22;4266;48.816;9.154;2022-09-09T01:19:55;15.60;97.50
8459;DHT22;4266;48.816;9.154;2022-09-09T01:27:40;15.70;97.10
8459;DHT22;4266;48.816;9.154;2022-09-09T01:30:14;15.60;97.10
8459;DHT22;4266;48.816;9.154;2022-09-09T01:32:41;15.60;97.00
8459;DHT22;4266;48.816;9.154;2022-09-09T01:35:13;15.70;96.90
8459;DHT22;4266;48.816;9.154;2022-09-09T01:37:38;15.80;96.60
8459;DHT22;4266;48.816;9.154;2022-09-09T01:40:04;15.80;96.60
8459;DHT22;4266;48.816;9.154;2022-09-09T01:42:31;15.90;96.50
8459;DHT22;4266;48.816;9.154;2022-09-09T01:44:57;15.90;96.50
8459;DHT22;4266;48.816;9.154;2022-09-09T01:47:22;16.00;96.30
8459;DHT22;4266;48.816;9.154;2022-09-09T01:49:48;15.90;96.20
8459;DHT22;4266;48.816;9.154;2022-09-09T01:52:14;15.90;96.30
8459;DHT22;4266;48.816;9.154;2022-09-09T01:54:39;16.00;96.30
8459;DHT22;4266;48.816;9.154;2022-09-09T01:57:17;16.10;96.20
8459;DHT22;4266;48.816;9.154;2022-09-09T02:02:17;15.90;96.30
8459;DHT22;4266;48.816;9.154;2022-09-09T02:04:43;16.00;96.30
8459;DHT22;4266;48.816;9.154;2022-09-09T02:07:35;15.60;96.90
8459;DHT22;4266;48.816;9.154;2022-09-09T02:10:01;15.60;96.90
8459;DHT22;4266;48.816;9.154;2022-09-09T02:12:24;15.70;96.80
8459;DHT22;4266;48.816;9.154;2022-09-09T02:14:51;15.60;96.70
8459;DHT22;4266;48.816;9.154;2022-09-09T02:17:18;15.70;96.60
8459;DHT22;4266;48.816;9.154;2022-09-09T02:19:44;15.70;96.60
8459;DHT22;4266;48.816;9.154;2022-09-09T02:22:08;15.70;96.70
8459;DHT22;4266;48.816;9.154;2022-09-09T02:24:35;15.60;97.00
8459;DHT22;4266;48.816;9.154;2022-09-09T02:27:01;15.50;97.10
8459;DHT22;4266;48.816;9.154;2022-09-09T02:29:30;15.40;97.20
8459;DHT22;4266;48.816;9.154;2022-09-09T02:31:54;15.30;97.10
8459;DHT22;4266;48.816;9.154;2022-09-09T02:34:20;15.40;97.30
8459;DHT22;4266;48.816;9.154;2022-09-09T02:36:45;15.40;97.30
8459;DHT22;4266;48.816;9.154;2022-09-09T02:39:11;15.30;97.30
8459;DHT22;4266;48.816;9.154;2022-09-09T02:41:38;15.30;97.50
8459;DHT22;4266;48.816;9.154;2022-09-09T02:44:11;15.30;97.70
8459;DHT22;4266;48.816;9.154;2022-09-09T02:49:10;15.20;97.80
8459;DHT22;4266;48.816;9.154;2022-09-09T02:51:44;15.20;97.90
8459;DHT22;4266;48.816;9.154;2022-09-09T02:54:13;15.10;97.90
8459;DHT22;4266;48.816;9.154;2022-09-09T02:56:39;15.10;98.00
8459;DHT22;4266;48.816;9.154;2022-09-09T02:59:03;15.10;98.20
8459;DHT22;4266;48.816;9.154;2022-09-09T03:01:28;15.10;98.30
8459;DHT22;4266;48.816;9.154;2022-09-09T03:03:54;15.00;98.40
8459;DHT22;4266;48.816;9.154;2022-09-09T03:06:20;15.00;98.40
8459;DHT22;4266;48.816;9.154;2022-09-09T03:08:45;14.90;98.60
8459;DHT22;4266;48.816;9.154;2022-09-09T03:11:11;14.90;98.60
8459;DHT22;4266;48.816;9.154;2022-09-09T03:13:37;14.90;99.00
8459;DHT22;4266;48.816;9.154;2022-09-09T03:16:03;14.80;98.90
8459;DHT22;4266;48.816;9.154;2022-09-09T03:18:30;14.80;99.50
8459;DHT22;4266;48.816;9.154;2022-09-09T03:20:56;14.70;99.80
8459;DHT22;4266;48.816;9.154;2022-09-09T03:23:22;14.70;99.80
8459;DHT22;4266;48.816;9.154;2022-09-09T03:25:48;14.70;99.90
8459;DHT22;4266;48.816;9.154;2022-09-09T03:28:14;14.60;99.90
8459;DHT22;4266;48.816;9.154;2022-09-09T03:30:39;14.60;99.90
8459;DHT22;4266;48.816;9.154;2022-09-09T03:33:06;14.50;99.90
8459;DHT22;4266;48.816;9.154;2022-09-09T03:35:32;14.40;99.90
8459;DHT22;4266;48.816;9.154;2022-09-09T03:37:58;14.40;99.90
8459;DHT22;4266;48.816;9.154;2022-09-09T03:40:23;14.30;99.90
8459;DHT22;4266;48.816;9.154;2022-09-09T03:42:49;14.20;99.90
8459;DHT22;4266;48.816;9.154;2022-09-09T03:45:15;14.40;99.90
8459;DHT22;4266;48.816;9.154;2022-09-09T03:47:41;14.40;99.90
8459;DHT22;4266;48.816;9.154;2022-09-09T03:50:07;14.50;99.90
8459;DHT22;4266;48.816;9.154;2022-09-09T03:52:36;14.40;99.90
8459;DHT22;4266;48.816;9.154;2022-09-09T03:55:01;14.40;99.90
8459;DHT22;4266;48.816;9.154;2022-09-09T03:57:26;14.40;99.90
8459;DHT22;4266;48.816;9.154;2022-09-09T03:59:52;14.50;99.90
8459;DHT22;4266;48.816;9.154;2022-09-09T04:02:18;14.60;99.90
8459;DHT22;4266;48.816;9.154;2022-09-09T04:04:44;14.60;99.90
8459;DHT22;4266;48.816;9.154;2022-09-09T04:07:10;14.60;99.80
8459;DHT22;4266;48.816;9.154;2022-09-09T04:09:35;14.70;99.60
8459;DHT22;4266;48.816;9.154;2022-09-09T04:12:02;14.70;99.80
8459;DHT22;4266;48.816;9.154;2022-09-09T04:14:27;14.60;99.90
8459;DHT22;4266;48.816;9.154;2022-09-09T04:16:53;14.70;99.90
8459;DHT22;4266;48.816;9.154;2022-09-09T04:19:19;14.60;99.90
8459;DHT22;4266;48.816;9.154;2022-09-09T04:21:45;14.60;99.90
8459;DHT22;4266;48.816;9.154;2022-09-09T04:24:11;14.80;99.90
8459;DHT22;4266;48.816;9.154;2022-09-09T04:26:37;15.20;98.90
8459;DHT22;4266;48.816;9.154;2022-09-09T04:29:03;15.20;98.90
8459;DHT22;4266;48.816;9.154;2022-09-09T04:31:29;15.30;98.70
8459;DHT22;4266;48.816;9.154;2022-09-09T04:33:54;15.40;98.50
8459;DHT22;4266;48.816;9.154;2022-09-09T04:36:20;15.50;98.50
8459;DHT22;4266;48.816;9.154;2022-09-09T04:38:46;15.30;98.60
8459;DHT22;4266;48.816;9.154;2022-09-09T04:41:12;15.50;98.30
8459;DHT22;4266;48.816;9.154;2022-09-09T04:43:38;15.50;98.40
8459;DHT22;4266;48.816;9.154;2022-09-09T04:46:03;15.40;98.50
8459;DHT22;4266;48.816;9.154;2022-09-09T04:48:29;15.30;98.70
8459;DHT22;4266;48.816;9.154;2022-09-09T04:50:57;15.30;98.90
8459;DHT22;4266;48.816;9.154;2022-09-09T04:53:22;15.30;98.90
8459;DHT22;4266;48.816;9.154;2022-09-09T04:55:48;15.20;99.40
8459;DHT22;4266;48.816;9.154;2022-09-09T04:58:14;15.10;99.50
8459;DHT22;4266;48.816;9.154;2022-09-09T05:00:40;15.10;99.80
8459;DHT22;4266;48.816;9.154;2022-09-09T05:03:05;15.00;99.90
8459;DHT22;4266;48.816;9.154;2022-09-09T05:05:32;14.90;99.90
8459;DHT22;4266;48.816;9.154;2022-09-09T05:08:03;14.90;99.90
8459;DHT22;4266;48.816;9.154;2022-09-09T05:10:28;14.90;99.90
8459;DHT22;4266;48.816;9.154;2022-09-09T05:12:54;15.00;99.70
8459;DHT22;4266;48.816;9.154;2022-09-09T05:15:19;15.10;99.30
8459;DHT22;4266;48.816;9.154;2022-09-09T05:17:45;15.20;98.80
8459;DHT22;4266;48.816;9.154;2022-09-09T05:20:11;15.30;98.40
8459;DHT22;4266;48.816;9.154;2022-09-09T05:22:37;15.70;98.00
8459;DHT22;4266;48.816;9.154;2022-09-09T05:25:03;15.70;98.00
8459;DHT22;4266;48.816;9.154;2022-09-09T05:27:29;15.80;97.50
8459;DHT22;4266;48.816;9.154;2022-09-09T05:29:55;16.00;97.20
8459;DHT22;4266;48.816;9.154;2022-09-09T05:32:21;16.60;96.80
8459;DHT22;4266;48.816;9.154;2022-09-09T05:34:47;16.60;96.80
8459;DHT22;4266;48.816;9.154;2022-09-09T05:37:13;17.20;96.40
8459;DHT22;4266;48.816;9.154;2022-09-09T05:39:38;18.10;95.50
8459;DHT22;4266;48.816;9.154;2022-09-09T05:42:05;18.00;95.20
8459;DHT22;4266;48.816;9.154;2022-09-09T05:44:31;17.30;95.90
8459;DHT22;4266;48.816;9.154;2022-09-09T05:46:57;17.30;95.90
8459;DHT22;4266;48.816;9.154;2022-09-09T05:49:22;17.20;95.90
8459;DHT22;4266;48.816;9.154;2022-09-09T05:51:48;17.10;95.70
8459;DHT22;4266;48.816;9.154;2022-09-09T05:54:15;17.00;95.70
8459;DHT22;4266;48.816;9.154;2022-09-09T05:56:41;17.00;95.60
8459;DHT22;4266;48.816;9.154;2022-09-09T05:59:07;17.10;95.40
8459;DHT22;4266;48.816;9.154;2022-09-09T06:01:34;17.30;95.80
8459;DHT22;4266;48.816;9.154;2022-09-09T06:03:59;17.30;95.40
8459;DHT22;4266;48.816;9.154;2022-09-09T06:06:26;17.30;95.40
8459;DHT22;4266;48.816;9.154;2022-09-09T06:08:51;17.30;95.10
8459;DHT22;4266;48.816;9.154;2022-09-09T06:11:18;17.40;95.50
8459;DHT22;4266;48.816;9.154;2022-09-09T06:13:42;17.50;95.30
8459;DHT22;4266;48.816;9.154;2022-09-09T06:16:10;17.40;95.50
8459;DHT22;4266;48.816;9.154;2022-09-09T06:18:35;17.50;95.30
8459;DHT22;4266;48.816;9.154;2022-09-09T06:21:02;17.50;95.60
8459;DHT22;4266;48.816;9.154;2022-09-09T06:23:27;17.50;95.50
8459;DHT22;4266;48.816;9.154;2022-09-09T06:26:05;17.40;95.60
8459;DHT22;4266;48.816;9.154;2022-09-09T06:28:33;17.40;95.40
8459;DHT22;4266;48.816;9.154;2022-09-09T06:30:59;17.40;95.40
8459;DHT22;4266;48.816;9.154;2022-09-09T06:33:24;17.40;96.10
8459;DHT22;4266;48.816;9.154;2022-09-09T06:35:51;17.40;96.10
8459;DHT22;4266;48.816;9.154;2022-09-09T06:38:16;17.50;95.90
8459;DHT22;4266;48.816;9.154;2022-09-09T06:40:42;17.40;95.80
8459;DHT22;4266;48.816;9.154;2022-09-09T06:43:08;17.60;96.20
8459;DHT22;4266;48.816;9.154;2022-09-09T06:45:33;17.80;96.20
8459;DHT22;4266;48.816;9.154;2022-09-09T06:47:59;17.90;95.70
8459;DHT22;4266;48.816;9.154;2022-09-09T06:50:25;18.00;95.80
8459;DHT22;4266;48.816;9.154;2022-09-09T06:52:50;18.10;95.70
8459;DHT22;4266;48.816;9.154;2022-09-09T06:55:16;18.20;95.50
8459;DHT22;4266;48.816;9.154;2022-09-09T06:57:43;18.30;95.50
8459;DHT22;4266;48.816;9.154;2022-09-09T07:00:16;18.30;95.50
8459;DHT22;4266;48.816;9.154;2022-09-09T07:02:42;18.40;95.50
8459;DHT22;4266;48.816;9.154;2022-09-09T07:05:08;18.40;96.00
8459;DHT22;4266;48.816;9.154;2022-09-09T07:07:33;18.60;96.00
8459;DHT22;4266;48.816;9.154;2022-09-09T07:09:59;18.70;95.70
8459;DHT22;4266;48.816;9.154;2022-09-09T07:12:25;18.80;95.20
8459;DHT22;4266;48.816;9.154;2022-09-09T07:14:50;19.10;95.30
8459;DHT22;4266;48.816;9.154;2022-09-09T07:17:17;19.40;94.90
8459;DHT22;4266;48.816;9.154;2022-09-09T07:19:42;19.40;94.80
8459;DHT22;4266;48.816;9.154;2022-09-09T07:22:08;19.50;94.60
8459;DHT22;4266;48.816;9.154;2022-09-09T07:24:34;19.60;94.40
8459;DHT22;4266;48.816;9.154;2022-09-09T07:27:00;20.10;94.50
8459;DHT22;4266;48.816;9.154;2022-09-09T07:29:26;20.10;94.50
8459;DHT22;4266;48.816;9.154;2022-09-09T07:31:51;20.00;94.70
8459;DHT22;4266;48.816;9.154;2022-09-09T07:34:17;20.10;94.40
8459;DHT22;4266;48.816;9.154;2022-09-09T07:36:44;21.20;94.00
8459;DHT22;4266;48.816;9.154;2022-09-09T07:39:10;21.10;93.90
8459;DHT22;4266;48.816;9.154;2022-09-09T07:41:37;21.80;93.40
8459;DHT22;4266;48.816;9.154;2022-09-09T07:44:04;21.80;93.50
8459;DHT22;4266;48.816;9.154;2022-09-09T07:46:29;22.60;92.80
8459;DHT22;4266;48.816;9.154;2022-09-09T07:48:55;22.60;92.80
8459;DHT22;4266;48.816;9.154;2022-09-09T07:51:22;22.30;92.30
8459;DHT22;4266;48.816;9.154;2022-09-09T07:53:46;22.80;92.60
8459;DHT22;4266;48.816;9.154;2022-09-09T07:56:13;23.80;91.80
8459;DHT22;4266;48.816;9.154;2022-09-09T07:58:38;26.40;90.90
8459;DHT22;4266;48.816;9.154;2022-09-09T08:01:07;28.20;87.60
8459;DHT22;4266;48.816;9.154;2022-09-09T08:03:31;27.10;87.20
8459;DHT22;4266;48.816;9.154;2022-09-09T08:06:01;26.20;85.20
8459;DHT22;4266;48.816;9.154;2022-09-09T08:08:26;26.20;85.20
8459;DHT22;4266;48.816;9.154;2022-09-09T08:10:51;25.70;86.20
8459;DHT22;4266;48.816;9.154;2022-09-09T08:13:18;26.60;85.70
8459;DHT22;4266;48.816;9.154;2022-09-09T08:15:43;26.60;86.10
8459;DHT22;4266;48.816;9.154;2022-09-09T08:18:09;26.90;84.10
8459;DHT22;4266;48.816;9.154;2022-09-09T08:20:36;26.90;82.10
8459;DHT22;4266;48.816;9.154;2022-09-09T08:23:01;26.90;82.10
8459;DHT22;4266;48.816;9.154;2022-09-09T08:25:27;26.80;83.30
8459;DHT22;4266;48.816;9.154;2022-09-09T08:27:53;27.40;82.70
8459;DHT22;4266;48.816;9.154;2022-09-09T08:30:19;27.00;81.90
8459;DHT22;4266;48.816;9.154;2022-09-09T08:32:45;27.60;82.50
8459;DHT22;4266;48.816;9.154;2022-09-09T08:35:11;27.60;82.40
8459;DHT22;4266;48.816;9.154;2022-09-09T08:37:37;27.00;82.60
8459;DHT22;4266;48.816;9.154;2022-09-09T08:40:04;26.60;83.10
8459;DHT22;4266;48.816;9.154;2022-09-09T08:42:45;26.60;83.10
8459;DHT22;4266;48.816;9.154;2022-09-09T08:45:20;26.70;81.70
8459;DHT22;4266;48.816;9.154;2022-09-09T08:50:43;27.50;79.70
8459;DHT22;4266;48.816;9.154;2022-09-09T08:53:20;27.10;79.20
8459;DHT22;4266;48.816;9.154;2022-09-09T08:55:49;26.80;80.50
8459;DHT22;4266;48.816;9.154;2022-09-09T08:58:19;27.60;79.20
8459;DHT22;4266;48.816;9.154;2022-09-09T09:00:52;27.80;80.20
8459;DHT22;4266;48.816;9.154;2022-09-09T09:03:18;27.80;78.70
8459;DHT22;4266;48.816;9.154;2022-09-09T09:05:47;27.80;77.20
8459;DHT22;4266;48.816;9.154;2022-09-09T09:08:16;27.80;77.90
8459;DHT22;4266;48.816;9.154;2022-09-09T09:10:54;27.60;75.90
8459;DHT22;4266;48.816;9.154;2022-09-09T09:13:20;27.90;76.50
8459;DHT22;4266;48.816;9.154;2022-09-09T09:15:46;26.00;77.50
8459;DHT22;4266;48.816;9.154;2022-09-09T09:18:12;26.00;77.50
8459;DHT22;4266;48.816;9.154;2022-09-09T09:20:42;25.40;76.80
8459;DHT22;4266;48.816;9.154;2022-09-09T09:23:04;23.60;82.90
8459;DHT22;4266;48.816;9.154;2022-09-09T09:25:31;23.60;82.90
8459;DHT22;4266;48.816;9.154;2022-09-09T09:28:15;23.40;83.10
8459;DHT22;4266;48.816;9.154;2022-09-09T09:30:40;22.60;84.20
8459;DHT22;4266;48.816;9.154;2022-09-09T09:33:08;22.50;84.00
8459;DHT22;4266;48.816;9.154;2022-09-09T09:35:32;21.70;86.00
8459;DHT22;4266;48.816;9.154;2022-09-09T09:37:58;21.70;85.50
8459;DHT22;4266;48.816;9.154;2022-09-09T09:40:23;21.60;84.60
8459;DHT22;4266;48.816;9.154;2022-09-09T09:42:51;21.10;84.20
8459;DHT22;4266;48.816;9.154;2022-09-09T09:45:18;23.30;81.90
8459;DHT22;4266;48.816;9.154;2022-09-09T09:47:42;23.30;81.80
8459;DHT22;4266;48.816;9.154;2022-09-09T09:50:19;25.40;79.30
8459;DHT22;4266;48.816;9.154;2022-09-09T09:52:53;25.10;78.60
8459;DHT22;4266;48.816;9.154;2022-09-09T09:55:12;24.60;75.50
8459;DHT22;4266;48.816;9.154;2022-09-09T09:57:36;24.20;75.10
8459;DHT22;4266;48.816;9.154;2022-09-09T10:00:14;24.30;75.30
8459;DHT22;4266;48.816;9.154;2022-09-09T10:02:41;24.30;75.30
8459;DHT22;4266;48.816;9.154;2022-09-09T10:05:28;24.20;75.80
8459;DHT22;4266;48.816;9.154;2022-09-09T10:08:05;25.40;75.90
8459;DHT22;4266;48.816;9.154;2022-09-09T10:12:00;25.40;75.90
8459;DHT22;4266;48.816;9.154;2022-09-09T10:13:44;25.70;75.70
8459;DHT22;4266;48.816;9.154;2022-09-09T10:16:20;25.70;76.30
8459;DHT22;4266;48.816;9.154;2022-09-09T10:18:58;25.70;76.30
8459;DHT22;4266;48.816;9.154;2022-09-09T10:21:27;26.00;76.40
8459;DHT22;4266;48.816;9.154;2022-09-09T10:26:56;26.40;73.80
8459;DHT22;4266;48.816;9.154;2022-09-09T10:29:42;25.70;74.30
8459;DHT22;4266;48.816;9.154;2022-09-09T10:32:23;25.80;74.90
8459;DHT22;4266;48.816;9.154;2022-09-09T10:34:55;25.80;75.30
8459;DHT22;4266;48.816;9.154;2022-09-09T10:37:28;25.20;75.30
8459;DHT22;4266;48.816;9.154;2022-09-09T10:39:50;25.20;75.40
8459;DHT22;4266;48.816;9.154;2022-09-09T10:42:16;25.30;75.90
8459;DHT22;4266;48.816;9.154;2022-09-09T10:44:49;26.40;77.70
8459;DHT22;4266;48.816;9.154;2022-09-09T10:52:51;26.60;74.90
8459;DHT22;4266;48.816;9.154;2022-09-09T10:55:17;25.40;72.50
8459;DHT22;4266;48.816;9.154;2022-09-09T10:57:46;25.20;73.00
8459;DHT22;4266;48.816;9.154;2022-09-09T11:00:24;25.30;73.00
8459;DHT22;4266;48.816;9.154;2022-09-09T11:02:56;25.30;73.00
8459;DHT22;4266;48.816;9.154;2022-09-09T11:05:27;25.00;74.00
8459;DHT22;4266;48.816;9.154;2022-09-09T11:08:02;24.50;73.20
8459;DHT22;4266;48.816;9.154;2022-09-09T11:10:48;24.30;75.70
8459;DHT22;4266;48.816;9.154;2022-09-09T11:13:20;23.70;76.60
8459;DHT22;4266;48.816;9.154;2022-09-09T11:15:45;22.10;76.10
8459;DHT22;4266;48.816;9.154;2022-09-09T11:18:13;22.10;76.00
8459;DHT22;4266;48.816;9.154;2022-09-09T11:20:37;21.80;76.40
8459;DHT22;4266;48.816;9.154;2022-09-09T11:23:09;21.60;77.90
8459;DHT22;4266;48.816;9.154;2022-09-09T11:25:34;21.50;77.80
8459;DHT22;4266;48.816;9.154;2022-09-09T11:33:51;21.50;80.60
8459;DHT22;4266;48.816;9.154;2022-09-09T11:36:36;21.90;81.20
8459;DHT22;4266;48.816;9.154;2022-09-09T11:39:04;22.10;79.30
8459;DHT22;4266;48.816;9.154;2022-09-09T11:41:32;22.50;78.50
8459;DHT22;4266;48.816;9.154;2022-09-09T11:43:52;21.80;78.30
8459;DHT22;4266;48.816;9.154;2022-09-09T11:46:18;21.40;79.00
8459;DHT22;4266;48.816;9.154;2022-09-09T11:48:44;21.30;79.70
8459;DHT22;4266;48.816;9.154;2022-09-09T11:51:11;20.80;80.60
8459;DHT22;4266;48.816;9.154;2022-09-09T11:53:47;20.70;80.50
8459;DHT22;4266;48.816;9.154;2022-09-09T11:56:08;21.00;81.40
8459;DHT22;4266;48.816;9.154;2022-09-09T11:58:37;21.00;81.40
8459;DHT22;4266;48.816;9.154;2022-09-09T12:01:12;21.40;79.50
8459;DHT22;4266;48.816;9.154;2022-09-09T12:03:43;21.40;79.50
8459;DHT22;4266;48.816;9.154;2022-09-09T12:06:11;21.80;79.60
8459;DHT22;4266;48.816;9.154;2022-09-09T12:08:36;22.30;78.80
8459;DHT22;4266;48.816;9.154;2022-09-09T12:11:02;22.80;78.50
8459;DHT22;4266;48.816;9.154;2022-09-09T12:13:29;23.10;79.00
8459;DHT22;4266;48.816;9.154;2022-09-09T12:15:56;22.70;78.00
8459;DHT22;4266;48.816;9.154;2022-09-09T12:18:22;22.70;80.00
8459;DHT22;4266;48.816;9.154;2022-09-09T12:20:52;23.00;79.00
8459;DHT22;4266;48.816;9.154;2022-09-09T12:23:22;23.00;79.00
8459;DHT22;4266;48.816;9.154;2022-09-09T12:25:52;23.30;78.90
8459;DHT22;4266;48.816;9.154;2022-09-09T12:28:18;23.70;78.00
8459;DHT22;4266;48.816;9.154;2022-09-09T12:30:48;23.50;77.30
8459;DHT22;4266;48.816;9.154;2022-09-09T12:33:11;24.00;76.60
8459;DHT22;4266;48.816;9.154;2022-09-09T12:35:35;24.50;77.10
8459;DHT22;4266;48.816;9.154;2022-09-09T12:38:01;24.60;75.00
8459;DHT22;4266;48.816;9.154;2022-09-09T12:40:31;24.40;73.50
8459;DHT22;4266;48.816;9.154;2022-09-09T12:42:56;24.40;73.50
8459;DHT22;4266;48.816;9.154;2022-09-09T12:45:23;24.00;74.00
8459;DHT22;4266;48.816;9.154;2022-09-09T12:47:52;23.50;73.20
8459;DHT22;4266;48.816;9.154;2022-09-09T12:50:32;23.50;73.20
8459;DHT22;4266;48.816;9.154;2022-09-09T12:53:00;23.90;73.80
8459;DHT22;4266;48.816;9.154;2022-09-09T12:55:25;23.80;73.70
8459;DHT22;4266;48.816;9.154;2022-09-09T12:57:50;23.80;73.80
8459;DHT22;4266;48.816;9.154;2022-09-09T13:00:17;24.20;74.00
8459;DHT22;4266;48.816;9.154;2022-09-09T13:02:47;23.80;74.10
8459;DHT22;4266;48.816;9.154;2022-09-09T13:05:18;23.60;74.00
8459;DHT22;4266;48.816;9.154;2022-09-09T13:07:43;23.60;74.00
8459;DHT22;4266;48.816;9.154;2022-09-09T13:10:11;23.80;74.00
8459;DHT22;4266;48.816;9.154;2022-09-09T13:12:36;23.70;74.40
8459;DHT22;4266;48.816;9.154;2022-09-09T13:15:02;24.00;74.10
8459;DHT22;4266;48.816;9.154;2022-09-09T13:17:29;24.50;74.00
8459;DHT22;4266;48.816;9.154;2022-09-09T13:19:56;24.50;75.20
8459;DHT22;4266;48.816;9.154;2022-09-09T13:25:26;24.80;74.60
8459;DHT22;4266;48.816;9.154;2022-09-09T13:27:58;24.70;74.20
8459;DHT22;4266;48.816;9.154;2022-09-09T13:30:25;24.80;74.60
8459;DHT22;4266;48.816;9.154;2022-09-09T13:33:01;24.90;74.20
8459;DHT22;4266;48.816;9.154;2022-09-09T13:35:27;24.90;74.70
8459;DHT22;4266;48.816;9.154;2022-09-09T13:37:52;24.90;74.70
8459;DHT22;4266;48.816;9.154;2022-09-09T13:40:19;24.70;74.10
8459;DHT22;4266;48.816;9.154;2022-09-09T13:42:44;24.30;74.20
8459;DHT22;4266;48.816;9.154;2022-09-09T13:45:16;24.30;74.20
8459;DHT22;4266;48.816;9.154;2022-09-09T13:47:41;24.40;74.80
8459;DHT22;4266;48.816;9.154;2022-09-09T13:50:15;24.20;74.70
8459;DHT22;4266;48.816;9.154;2022-09-09T13:52:35;24.10;75.30
8459;DHT22;4266;48.816;9.154;2022-09-09T13:55:01;24.10;75.30
8459;DHT22;4266;48.816;9.154;2022-09-09T13:57:27;24.20;73.70
8459;DHT22;4266;48.816;9.154;2022-09-09T13:59:53;24.20;72.90
8459;DHT22;4266;48.816;9.154;2022-09-09T14:02:18;24.00;72.60
8459;DHT22;4266;48.816;9.154;2022-09-09T14:04:44;23.80;72.20
8459;DHT22;4266;48.816;9.154;2022-09-09T14:07:12;23.60;72.00
8459;DHT22;4266;48.816;9.154;2022-09-09T14:09:37;23.60;71.90
8459;DHT22;4266;48.816;9.154;2022-09-09T14:12:03;23.90;70.90
8459;DHT22;4266;48.816;9.154;2022-09-09T14:14:29;23.80;70.70
8459;DHT22;4266;48.816;9.154;2022-09-09T14:16:55;24.00;70.50
8459;DHT22;4266;48.816;9.154;2022-09-09T14:19:20;24.10;70.70
8459;DHT22;4266;48.816;9.154;2022-09-09T14:21:46;24.20;70.80
8459;DHT22;4266;48.816;9.154;2022-09-09T14:24:12;24.50;69.90
8459;DHT22;4266;48.816;9.154;2022-09-09T14:26:38;24.50;69.90
8459;DHT22;4266;48.816;9.154;2022-09-09T14:29:04;24.20;69.30
8459;DHT22;4266;48.816;9.154;2022-09-09T14:31:30;24.20;69.30
8459;DHT22;4266;48.816;9.154;2022-09-09T14:33:56;24.40;67.90
8459;DHT22;4266;48.816;9.154;2022-09-09T14:36:22;24.40;67.90
8459;DHT22;4266;48.816;9.154;2022-09-09T14:38:48;24.20;67.70
8459;DHT22;4266;48.816;9.154;2022-09-09T14:41:14;24.10;67.70
8459;DHT22;4266;48.816;9.154;2022-09-09T14:43:39;24.20;68.60
8459;DHT22;4266;48.816;9.154;2022-09-09T14:46:07;24.20;67.50
8459;DHT22;4266;48.816;9.154;2022-09-09T14:48:34;24.30;68.50
8459;DHT22;4266;48.816;9.154;2022-09-09T14:51:05;24.20;67.50
8459;DHT22;4266;48.816;9.154;2022-09-09T14:53:30;24.20;67.50
8459;DHT22;4266;48.816;9.154;2022-09-09T14:56:02;24.20;67.40
8459;DHT22;4266;48.816;9.154;2022-09-09T14:58:21;24.20;67.70
8459;DHT22;4266;48.816;9.154;2022-09-09T15:00:46;24.00;67.00
8459;DHT22;4266;48.816;9.154;2022-09-09T15:03:12;23.90;67.10
8459;DHT22;4266;48.816;9.154;2022-09-09T15:05:38;23.80;67.30
8459;DHT22;4266;48.816;9.154;2022-09-09T15:08:04;23.40;68.00
8459;DHT22;4266;48.816;9.154;2022-09-09T15:10:30;23.40;68.00
8459;DHT22;4266;48.816;9.154;2022-09-09T15:12:55;23.30;67.80
8459;DHT22;4266;48.816;9.154;2022-09-09T15:15:21;23.40;67.60
8459;DHT22;4266;48.816;9.154;2022-09-09T15:17:47;23.30;67.60
8459;DHT22;4266;48.816;9.154;2022-09-09T15:20:12;23.50;68.20
8459;DHT22;4266;48.816;9.154;2022-09-09T15:22:40;23.70;67.80
8459;DHT22;4266;48.816;9.154;2022-09-09T15:25:05;23.70;67.70
8459;DHT22;4266;48.816;9.154;2022-09-09T15:27:32;23.60;67.00
8459;DHT22;4266;48.816;9.154;2022-09-09T15:29:57;23.60;67.10
8459;DHT22;4266;48.816;9.154;2022-09-09T15:32:24;23.40;67.70
8459;DHT22;4266;48.816;9.154;2022-09-09T15:34:50;23.50;67.80
8459;DHT22;4266;48.816;9.154;2022-09-09T15:37:15;23.50;68.10
8459;DHT22;4266;48.816;9.154;2022-09-09T15:39:41;23.70;68.30
8459;DHT22;4266;48.816;9.154;2022-09-09T15:42:06;23.60;67.90
8459;DHT22;4266;48.816;9.154;2022-09-09T15:44:38;23.40;68.00
8459;DHT22;4266;48.816;9.154;2022-09-09T15:47:04;23.30;67.90
8459;DHT22;4266;48.816;9.154;2022-09-09T15:49:29;23.50;68.20
8459;DHT22;4266;48.816;9.154;2022-09-09T15:51:56;23.30;68.80
8459;DHT22;4266;48.816;9.154;2022-09-09T15:54:21;23.20;69.00
8459;DHT22;4266;48.816;9.154;2022-09-09T15:56:49;22.80;69.10
8459;DHT22;4266;48.816;9.154;2022-09-09T15:59:13;22.80;69.10
8459;DHT22;4266;48.816;9.154;2022-09-09T16:01:39;22.40;68.70
8459;DHT22;4266;48.816;9.154;2022-09-09T16:04:05;22.40;68.70
8459;DHT22;4266;48.816;9.154;2022-09-09T16:06:31;22.50;69.50
8459;DHT22;4266;48.816;9.154;2022-09-09T16:08:58;22.20;69.50
8459;DHT22;4266;48.816;9.154;2022-09-09T16:11:26;22.10;69.30
8459;DHT22;4266;48.816;9.154;2022-09-09T16:13:51;22.30;69.90
8459;DHT22;4266;48.816;9.154;2022-09-09T16:16:17;22.30;69.90
8459;DHT22;4266;48.816;9.154;2022-09-09T16:18:43;22.20;70.20
8459;DHT22;4266;48.816;9.154;2022-09-09T16:21:08;22.20;70.10
8459;DHT22;4266;48.816;9.154;2022-09-09T16:23:34;22.30;70.10
8459;DHT22;4266;48.816;9.154;2022-09-09T16:25:59;22.20;70.30
8459;DHT22;4266;48.816;9.154;2022-09-09T16:28:25;22.10;70.70
8459;DHT22;4266;48.816;9.154;2022-09-09T16:30:50;22.00;70.30
8459;DHT22;4266;48.816;9.154;2022-09-09T16:33:16;21.50;70.50
8459;DHT22;4266;48.816;9.154;2022-09-09T16:35:42;21.00;70.90
8459;DHT22;4266;48.816;9.154;2022-09-09T16:38:07;20.90;71.40
8459;DHT22;4266;48.816;9.154;2022-09-09T16:40:34;20.30;72.50
8459;DHT22;4266;48.816;9.154;2022-09-09T16:42:59;20.30;72.10
8459;DHT22;4266;48.816;9.154;2022-09-09T16:45:25;20.50;72.10
8459;DHT22;4266;48.816;9.154;2022-09-09T16:47:51;20.20;72.10